European Seaway — MPDG3 — position and weather

sailwx.info

Track history (hours):
 
Tides and Currents Weather Stations Pressure Air Temp Water Temp Dewpoint Dewpoint Depression Visibility Wind Speed Wind Dir Waves Ship Positions

European Seaway

Operator: P & O Ferries

Last reported at 2016-Jul-28 19:33 UTC. Time now 2016-Jul-28 20:23 UTC.
Position N 51°01' E 001°32'.

Length 179 m; draft 6.1 m.

Type: Passenger vessel. MMSI: 232001040.

Date/timePositionNaut miles runAvg speedWind from/ knotsBaromVisibWave heightAir tempDewpointWater temp
2016-Jul-28 19:33N 51°01' E 001°32'10 9.7
2016-Jul-28 18:33N 51°07' E 001°20'0 0.0
2016-Jul-28 17:34N 51°07' E 001°20'2 1.7
2016-Jul-28 16:33N 51°07' E 001°23'1615.6
2016-Jul-28 15:34N 50°59' E 001°44'5 4.7
2016-Jul-28 14:33N 50°58' E 001°51'8 7.9
2016-Jul-28 13:34N 50°59' E 001°39'1414.2
2016-Jul-28 12:33N 51°07' E 001°20'0 0.0
2016-Jul-28 11:33N 51°07' E 001°20'1414.0
2016-Jul-28 10:33N 51°01' E 001°39'8 7.7
2016-Jul-28 09:34N 50°58' E 001°51'6 5.8
2016-Jul-28 08:33N 50°58' E 001°42'1616.5
2016-Jul-28 07:34N 51°07' E 001°20'0 0.0
2016-Jul-28 06:33N 51°07' E 001°20'0 0.0
2016-Jul-28 05:34N 51°07' E 001°20'0 0.1
2016-Jul-28 04:34N 51°07' E 001°20'1413.5
2016-Jul-28 03:33N 51°01' E 001°39'8 8.4
2016-Jul-28 02:33N 50°58' E 001°52'1 0.8
2016-Jul-28 01:33N 50°58' E 001°50'1716.6
2016-Jul-28 00:33N 51°05' E 001°26'5 4.6
2016-Jul-27 23:33N 51°07' E 001°20'9 9.2
2016-Jul-27 22:34N 51°04' E 001°34'1312.7
2016-Jul-27 21:33N 50°58' E 001°52'0 0.0
2016-Jul-27 20:33N 50°58' E 001°52'10 9.9
2016-Jul-27 19:33N 51°00' E 001°36'1212.4
2016-Jul-27 18:33N 51°07' E 001°20'0 0.0
2016-Jul-27 17:32N 51°07' E 001°20'4 4.0
2016-Jul-27 16:34N 51°07' E 001°26'1616.1
2016-Jul-27 15:33N 50°58' E 001°48'2 2.1
2016-Jul-27 14:34N 50°58' E 001°51'1313.0
2016-Jul-27 13:33N 51°01' E 001°31'9 9.0
2016-Jul-27 12:33N 51°07' E 001°20'4 3.9
2016-Jul-27 11:34N 51°06' E 001°26'1717.1
2016-Jul-27 10:33N 50°58' E 001°50'1 0.7
2016-Jul-27 09:33N 50°58' E 001°51'1010.5
2016-Jul-27 08:33N 51°01' E 001°35'1111.5
2016-Jul-27 07:34N 51°07' E 001°20'0 0.0
2016-Jul-27 06:34N 51°07' E 001°20'0 0.0
2016-Jul-27 05:34N 51°07' E 001°20'0 0.1
2016-Jul-27 04:34N 51°07' E 001°20'1313.2
2016-Jul-27 03:33N 51°02' E 001°39'9 8.7
2016-Jul-27 02:33N 50°58' E 001°52'4 4.2
2016-Jul-27 01:34N 50°58' E 001°45'1717.4
2016-Jul-27 00:34N 51°07' E 001°21'1 0.9
2016-Jul-26 23:33N 51°07' E 001°20'1111.3
2016-Jul-26 22:34N 51°04' E 001°37'1110.8
2016-Jul-26 21:33N 50°58' E 001°52'0 0.0
2016-Jul-26 20:33N 50°58' E 001°52'6 5.8
2016-Jul-26 19:34N 50°58' E 001°42'1716.5
2016-Jul-26 18:33N 51°07' E 001°20'0 0.2
2016-Jul-26 17:33N 51°07' E 001°20'2 1.6
2016-Jul-26 16:33N 51°07' E 001°23'1515.2
2016-Jul-26 15:34N 50°59' E 001°43'5 5.2
2016-Jul-26 14:34N 50°58' E 001°51'8 7.8
2016-Jul-26 13:34N 50°59' E 001°39'1414.2
2016-Jul-26 12:33N 51°07' E 001°20'0 0.1
2016-Jul-26 11:33N 51°07' E 001°20'1615.9
2016-Jul-26 10:34N 50°59' E 001°42'6 5.8
2016-Jul-26 09:33N 50°58' E 001°51'8 7.8
2016-Jul-26 08:34N 50°58' E 001°39'1514.7
2016-Jul-26 07:33N 51°07' E 001°20'0 0.0
2016-Jul-26 06:33N 51°07' E 001°20'0 0.0
2016-Jul-26 05:33N 51°07' E 001°20'1 1.0
2016-Jul-26 04:33N 51°07' E 001°22'1515.3
2016-Jul-26 03:34N 50°60' E 001°43'6 5.8
2016-Jul-26 02:33N 50°58' E 001°52'0 0.0
2016-Jul-26 01:33N 50°58' E 001°52'0 0.0
2016-Jul-26 00:33N 50°58' E 001°52'0 0.0
2016-Jul-25 23:33N 50°58' E 001°52'0 0.0
2016-Jul-25 22:34N 50°58' E 001°52'0 0.0
2016-Jul-25 21:33N 50°58' E 001°52'0 0.0
2016-Jul-25 20:33N 50°58' E 001°52'1110.6
2016-Jul-25 19:33N 51°01' E 001°36'1111.4
2016-Jul-25 18:33N 51°07' E 001°20'0 0.0
2016-Jul-25 17:33N 51°07' E 001°20'0 0.3
2016-Jul-25 16:33N 51°07' E 001°21'1414.2
2016-Jul-25 15:34N 51°00' E 001°40'7 7.2
2016-Jul-25 14:33N 50°58' E 001°51'6 5.8
2016-Jul-25 13:34N 50°59' E 001°42'1616.0
2016-Jul-25 12:33N 51°07' E 001°20'0 0.3
2016-Jul-25 11:33N 51°07' E 001°20'1818.4
2016-Jul-25 10:33N 50°58' E 001°45'4 4.0
2016-Jul-25 09:33N 50°58' E 001°52'0 0.2
2016-Jul-25 08:33N 50°58' E 001°52'0 0.0
2016-Jul-25 07:33N 50°58' E 001°52'0 0.0
2016-Jul-25 06:34N 50°58' E 001°52'0 0.0
2016-Jul-25 05:33N 50°58' E 001°52'0 0.0
2016-Jul-25 04:34N 50°58' E 001°52'0 0.0
2016-Jul-25 03:34N 50°58' E 001°52'0 0.0
2016-Jul-25 02:34N 50°58' E 001°52'0 0.0
2016-Jul-25 01:33N 50°58' E 001°52'0 0.0
2016-Jul-25 00:33N 50°58' E 001°52'0 0.0
2016-Jul-24 23:34N 50°58' E 001°52'0 0.0
2016-Jul-24 22:34N 50°58' E 001°52'0 0.0
2016-Jul-24 21:34N 50°58' E 001°52'2 1.9
2016-Jul-24 20:33N 50°58' E 001°49'1716.9
2016-Jul-24 19:33N 51°06' E 001°24'3 3.3
2016-Jul-24 18:33N 51°07' E 001°20'0 0.0
2016-Jul-24 17:33N 51°07' E 001°20'0 0.1
2016-Jul-24 16:34N 51°07' E 001°20'1616.0
2016-Jul-24 15:33N 50°60' E 001°43'6 5.5
2016-Jul-24 14:33N 50°58' E 001°51'8 7.7
2016-Jul-24 13:33N 50°59' E 001°39'1414.3
2016-Jul-24 12:33N 51°07' E 001°20'1 1.5
2016-Jul-24 11:34N 51°07' E 001°22'1817.8
2016-Jul-24 10:33N 50°58' E 001°47'3 2.6
2016-Jul-24 09:33N 50°58' E 001°51'0 0.0
2016-Jul-24 08:33N 50°58' E 001°51'1312.7
2016-Jul-24 07:34N 51°02' E 001°32'9 9.1
2016-Jul-24 06:33N 51°07' E 001°20'0 0.0
2016-Jul-24 05:33N 51°07' E 001°20'0 0.0
2016-Jul-24 04:33N 51°07' E 001°20'1312.9
2016-Jul-24 03:33N 51°02' E 001°38'9 8.7
2016-Jul-24 02:34N 50°58' E 001°51'1 0.7
2016-Jul-24 01:33N 50°58' E 001°52'0 0.0
2016-Jul-24 00:33N 50°58' E 001°52'0 0.0
2016-Jul-23 23:34N 50°58' E 001°52'0 0.0
2016-Jul-23 22:34N 50°58' E 001°52'0 0.3
2016-Jul-23 21:34N 50°58' E 001°52'1413.8
2016-Jul-23 20:33N 51°02' E 001°31'8 8.4
2016-Jul-23 19:33N 51°07' E 001°20'0 0.0
2016-Jul-23 18:33N 51°07' E 001°20'0 0.0
2016-Jul-23 17:33N 51°07' E 001°20'2 1.7
2016-Jul-23 16:33N 51°07' E 001°23'1616.3
2016-Jul-23 15:34N 50°58' E 001°45'4 4.0
2016-Jul-23 14:33N 50°58' E 001°51'1414.1
2016-Jul-23 13:33N 51°03' E 001°30'8 7.6
2016-Jul-23 12:33N 51°07' E 001°20'6 6.0
2016-Jul-23 11:33N 51°06' E 001°29'1615.7
2016-Jul-23 10:33N 50°58' E 001°51'2 2.4
2016-Jul-23 09:33N 50°58' E 001°47'1413.7
2016-Jul-23 08:34N 51°04' E 001°27'6 5.7
2016-Jul-23 07:33N 51°07' E 001°20'0 0.0
2016-Jul-23 06:33N 51°07' E 001°20'0 0.1
2016-Jul-23 04:33N 51°07' E 001°20'1312.7
2016-Jul-23 03:33N 51°02' E 001°39'9 9.1
2016-Jul-23 02:33N 50°58' E 001°52'3 3.0
2016-Jul-23 01:33N 50°58' E 001°47'1717.5
2016-Jul-23 00:33N 51°06' E 001°23'2 1.9
2016-Jul-22 23:33N 51°07' E 001°20'9 9.1
2016-Jul-22 22:33N 51°03' E 001°33'1312.9
2016-Jul-22 21:33N 50°58' E 001°52'0 0.0
2016-Jul-22 20:33N 50°58' E 001°52'5 5.5
2016-Jul-22 19:34N 50°58' E 001°43'1716.8
2016-Jul-22 18:33N 51°07' E 001°20'0 0.2
2016-Jul-22 17:33N 51°07' E 001°20'0 0.1
2016-Jul-22 16:33N 51°07' E 001°20'1615.5
2016-Jul-22 15:33N 50°60' E 001°42'6 6.1
2016-Jul-22 14:33N 50°58' E 001°51'1313.3
2016-Jul-22 13:33N 51°02' E 001°31'9 8.5
2016-Jul-22 12:33N 51°07' E 001°20'2 1.6
2016-Jul-22 11:33N 51°07' E 001°23'1717.3
2016-Jul-22 10:33N 50°58' E 001°46'3 3.2
2016-Jul-22 09:33N 50°58' E 001°51'5 4.7
2016-Jul-22 08:34N 50°58' E 001°44'1717.0
2016-Jul-22 07:33N 51°07' E 001°21'1 0.3
2016-Jul-22 05:33N 51°07' E 001°20'0 0.0
2016-Jul-22 04:33N 51°07' E 001°20'1313.5
2016-Jul-22 03:33N 51°01' E 001°39'9 8.6
2016-Jul-22 02:34N 50°58' E 001°52'0 0.0
2016-Jul-22 01:34N 50°58' E 001°52'1312.6
2016-Jul-22 00:33N 51°03' E 001°33'9 9.2
2016-Jul-21 23:32N 51°07' E 001°20'6 6.4
2016-Jul-21 22:34N 51°06' E 001°30'1414.4
2016-Jul-21 21:33N 50°58' E 001°49'2 1.6
2016-Jul-21 20:34N 50°58' E 001°52'0 0.1
2016-Jul-21 19:33N 50°58' E 001°52'10 9.8
2016-Jul-21 18:33N 50°59' E 001°36'1313.2
2016-Jul-21 17:33N 51°07' E 001°20'0 0.3
2016-Jul-21 16:33N 51°07' E 001°20'1515.3
2016-Jul-21 15:33N 50°60' E 001°42'6 6.1
2016-Jul-21 14:33N 50°58' E 001°51'7 7.0
2016-Jul-21 13:34N 50°59' E 001°40'1515.1
2016-Jul-21 12:33N 51°07' E 001°20'0 0.1
2016-Jul-21 11:32N 51°07' E 001°20'6 5.7
2016-Jul-21 10:33N 51°05' E 001°28'1615.5
2016-Jul-21 09:33N 50°58' E 001°51'0 0.4
2016-Jul-21 08:34N 50°58' E 001°51'9 9.1
2016-Jul-21 07:33N 50°59' E 001°37'1313.3
2016-Jul-21 06:34N 51°07' E 001°20'0 0.0
2016-Jul-21 05:34N 51°07' E 001°20'0 0.1
2016-Jul-21 04:34N 51°07' E 001°20'1414.0
2016-Jul-21 03:33N 51°01' E 001°40'8 7.9
2016-Jul-21 02:33N 50°58' E 001°52'0 0.0
2016-Jul-21 01:34N 50°58' E 001°52'1514.6
2016-Jul-21 00:34N 51°04' E 001°30'7 7.4
2016-Jul-20 23:33N 51°07' E 001°20'6 6.5
2016-Jul-20 22:33N 51°06' E 001°30'1515.5
2016-Jul-20 21:33N 50°58' E 001°51'0 0.2
2016-Jul-20 20:33N 50°58' E 001°52'3 2.7
2016-Jul-20 19:34N 50°58' E 001°47'1716.8
2016-Jul-20 18:34N 51°06' E 001°24'3 2.8
2016-Jul-20 17:33N 51°07' E 001°20'0 0.0
2016-Jul-20 16:33N 51°07' E 001°20'1414.0
2016-Jul-20 15:33N 51°01' E 001°39'8 7.8
2016-Jul-20 14:33N 50°58' E 001°51'8 7.6
2016-Jul-20 13:33N 50°59' E 001°39'1514.4
2016-Jul-20 12:33N 51°07' E 001°20'0 0.0
2016-Jul-20 11:34N 51°07' E 001°20'1312.7
2016-Jul-20 10:34N 51°01' E 001°38'9 9.0
2016-Jul-20 09:34N 50°58' E 001°51'4 4.2
2016-Jul-20 08:33N 50°58' E 001°44'1616.1
2016-Jul-20 07:33N 51°06' E 001°22'2 1.8
2016-Jul-20 06:33N 51°07' E 001°20'0 0.0
2016-Jul-20 05:33N 51°07' E 001°20'0 0.0
2016-Jul-20 04:34N 51°07' E 001°20'1414.3
2016-Jul-20 03:33N 51°00' E 001°40'8 7.8
2016-Jul-20 02:34N 50°58' E 001°52'9 8.7
2016-Jul-20 01:33N 50°59' E 001°38'1414.0
2016-Jul-20 00:33N 51°07' E 001°20'0 0.0
2016-Jul-19 23:33N 51°07' E 001°20'1212.5
2016-Jul-19 22:33N 51°01' E 001°37'10 9.7
2016-Jul-19 21:34N 50°58' E 001°52'0 0.0
2016-Jul-19 20:33N 50°58' E 001°52'0 0.0
2016-Jul-19 19:33N 50°58' E 001°52'1312.6
2016-Jul-19 18:34N 51°01' E 001°32'10 9.8
2016-Jul-19 17:33N 51°07' E 001°20'0 0.0
2016-Jul-19 16:33N 51°07' E 001°20'1111.2
2016-Jul-19 15:33N 51°03' E 001°36'1010.4
2016-Jul-19 14:33N 50°58' E 001°51'6 5.6
2016-Jul-19 13:33N 50°58' E 001°42'1616.3
2016-Jul-19 12:33N 51°07' E 001°20'0 0.1
2016-Jul-19 11:33N 51°07' E 001°20'1615.6
2016-Jul-19 10:33N 50°60' E 001°42'6 6.1
2016-Jul-19 09:33N 50°58' E 001°51'7 6.6
2016-Jul-19 08:33N 50°58' E 001°41'1615.5
2016-Jul-19 07:33N 51°07' E 001°20'0 0.0
2016-Jul-19 04:32N 51°07' E 001°20'1514.8
2016-Jul-19 03:33N 51°00' E 001°40'8 7.5
2016-Jul-19 02:33N 50°58' E 001°52'0 0.0
2016-Jul-19 01:28N 50°58' E 001°52'0 0.0
2016-Jul-19 00:31N 50°58' E 001°52'0 0.0
2016-Jul-18 23:31N 50°58' E 001°52'0 0.0
2016-Jul-18 22:33N 50°58' E 001°52'0 0.0
2016-Jul-18 21:33N 50°58' E 001°52'0 0.0
2016-Jul-18 20:33N 50°58' E 001°52'1212.4
2016-Jul-18 19:33N 51°01' E 001°33'  
Track history (hours):
 
Tides and Currents Weather Stations Pressure Air Temp Water Temp Dewpoint Dewpoint Depression Visibility Wind Speed Wind Dir Waves Ship Positions

European Seaway

Operator: P & O Ferries

Last reported at 2016-Jul-28 19:33 UTC. Time now 2016-Jul-28 20:23 UTC.
Position N 51°01' E 001°32'.

Length 179 m; draft 6.1 m.

Type: Passenger vessel. MMSI: 232001040.

Date/timePositionNaut miles runAvg speedWind from/ knotsBaromVisibWave heightAir tempDewpointWater temp
2016-Jul-28 19:33N 51°01' E 001°32'10 9.7
2016-Jul-28 18:33N 51°07' E 001°20'0 0.0
2016-Jul-28 17:34N 51°07' E 001°20'2 1.7
2016-Jul-28 16:33N 51°07' E 001°23'1615.6
2016-Jul-28 15:34N 50°59' E 001°44'5 4.7
2016-Jul-28 14:33N 50°58' E 001°51'8 7.9
2016-Jul-28 13:34N 50°59' E 001°39'1414.2
2016-Jul-28 12:33N 51°07' E 001°20'0 0.0
2016-Jul-28 11:33N 51°07' E 001°20'1414.0
2016-Jul-28 10:33N 51°01' E 001°39'8 7.7
2016-Jul-28 09:34N 50°58' E 001°51'6 5.8
2016-Jul-28 08:33N 50°58' E 001°42'1616.5
2016-Jul-28 07:34N 51°07' E 001°20'0 0.0
2016-Jul-28 06:33N 51°07' E 001°20'0 0.0
2016-Jul-28 05:34N 51°07' E 001°20'0 0.1
2016-Jul-28 04:34N 51°07' E 001°20'1413.5
2016-Jul-28 03:33N 51°01' E 001°39'8 8.4
2016-Jul-28 02:33N 50°58' E 001°52'1 0.8
2016-Jul-28 01:33N 50°58' E 001°50'1716.6
2016-Jul-28 00:33N 51°05' E 001°26'5 4.6
2016-Jul-27 23:33N 51°07' E 001°20'9 9.2
2016-Jul-27 22:34N 51°04' E 001°34'1312.7
2016-Jul-27 21:33N 50°58' E 001°52'0 0.0
2016-Jul-27 20:33N 50°58' E 001°52'10 9.9
2016-Jul-27 19:33N 51°00' E 001°36'1212.4
2016-Jul-27 18:33N 51°07' E 001°20'0 0.0
2016-Jul-27 17:32N 51°07' E 001°20'4 4.0
2016-Jul-27 16:34N 51°07' E 001°26'1616.1
2016-Jul-27 15:33N 50°58' E 001°48'2 2.1
2016-Jul-27 14:34N 50°58' E 001°51'1313.0
2016-Jul-27 13:33N 51°01' E 001°31'9 9.0
2016-Jul-27 12:33N 51°07' E 001°20'4 3.9
2016-Jul-27 11:34N 51°06' E 001°26'1717.1
2016-Jul-27 10:33N 50°58' E 001°50'1 0.7
2016-Jul-27 09:33N 50°58' E 001°51'1010.5
2016-Jul-27 08:33N 51°01' E 001°35'1111.5
2016-Jul-27 07:34N 51°07' E 001°20'0 0.0
2016-Jul-27 06:34N 51°07' E 001°20'0 0.0
2016-Jul-27 05:34N 51°07' E 001°20'0 0.1
2016-Jul-27 04:34N 51°07' E 001°20'1313.2
2016-Jul-27 03:33N 51°02' E 001°39'9 8.7
2016-Jul-27 02:33N 50°58' E 001°52'4 4.2
2016-Jul-27 01:34N 50°58' E 001°45'1717.4
2016-Jul-27 00:34N 51°07' E 001°21'1 0.9
2016-Jul-26 23:33N 51°07' E 001°20'1111.3
2016-Jul-26 22:34N 51°04' E 001°37'1110.8
2016-Jul-26 21:33N 50°58' E 001°52'0 0.0
2016-Jul-26 20:33N 50°58' E 001°52'6 5.8
2016-Jul-26 19:34N 50°58' E 001°42'1716.5
2016-Jul-26 18:33N 51°07' E 001°20'0 0.2
2016-Jul-26 17:33N 51°07' E 001°20'2 1.6
2016-Jul-26 16:33N 51°07' E 001°23'1515.2
2016-Jul-26 15:34N 50°59' E 001°43'5 5.2
2016-Jul-26 14:34N 50°58' E 001°51'8 7.8
2016-Jul-26 13:34N 50°59' E 001°39'1414.2
2016-Jul-26 12:33N 51°07' E 001°20'0 0.1
2016-Jul-26 11:33N 51°07' E 001°20'1615.9
2016-Jul-26 10:34N 50°59' E 001°42'6 5.8
2016-Jul-26 09:33N 50°58' E 001°51'8 7.8
2016-Jul-26 08:34N 50°58' E 001°39'1514.7
2016-Jul-26 07:33N 51°07' E 001°20'0 0.0
2016-Jul-26 06:33N 51°07' E 001°20'0 0.0
2016-Jul-26 05:33N 51°07' E 001°20'1 1.0
2016-Jul-26 04:33N 51°07' E 001°22'1515.3
2016-Jul-26 03:34N 50°60' E 001°43'6 5.8
2016-Jul-26 02:33N 50°58' E 001°52'0 0.0
2016-Jul-26 01:33N 50°58' E 001°52'0 0.0
2016-Jul-26 00:33N 50°58' E 001°52'0 0.0
2016-Jul-25 23:33N 50°58' E 001°52'0 0.0
2016-Jul-25 22:34N 50°58' E 001°52'0 0.0
2016-Jul-25 21:33N 50°58' E 001°52'0 0.0
2016-Jul-25 20:33N 50°58' E 001°52'1110.6
2016-Jul-25 19:33N 51°01' E 001°36'1111.4
2016-Jul-25 18:33N 51°07' E 001°20'0 0.0
2016-Jul-25 17:33N 51°07' E 001°20'0 0.3
2016-Jul-25 16:33N 51°07' E 001°21'1414.2
2016-Jul-25 15:34N 51°00' E 001°40'7 7.2
2016-Jul-25 14:33N 50°58' E 001°51'6 5.8
2016-Jul-25 13:34N 50°59' E 001°42'1616.0
2016-Jul-25 12:33N 51°07' E 001°20'0 0.3
2016-Jul-25 11:33N 51°07' E 001°20'1818.4
2016-Jul-25 10:33N 50°58' E 001°45'4 4.0
2016-Jul-25 09:33N 50°58' E 001°52'0 0.2
2016-Jul-25 08:33N 50°58' E 001°52'0 0.0
2016-Jul-25 07:33N 50°58' E 001°52'0 0.0
2016-Jul-25 06:34N 50°58' E 001°52'0 0.0
2016-Jul-25 05:33N 50°58' E 001°52'0 0.0
2016-Jul-25 04:34N 50°58' E 001°52'0 0.0
2016-Jul-25 03:34N 50°58' E 001°52'0 0.0
2016-Jul-25 02:34N 50°58' E 001°52'0 0.0
2016-Jul-25 01:33N 50°58' E 001°52'0 0.0
2016-Jul-25 00:33N 50°58' E 001°52'0 0.0
2016-Jul-24 23:34N 50°58' E 001°52'0 0.0
2016-Jul-24 22:34N 50°58' E 001°52'0 0.0
2016-Jul-24 21:34N 50°58' E 001°52'2 1.9
2016-Jul-24 20:33N 50°58' E 001°49'1716.9
2016-Jul-24 19:33N 51°06' E 001°24'3 3.3
2016-Jul-24 18:33N 51°07' E 001°20'0 0.0
2016-Jul-24 17:33N 51°07' E 001°20'0 0.1
2016-Jul-24 16:34N 51°07' E 001°20'1616.0
2016-Jul-24 15:33N 50°60' E 001°43'6 5.5
2016-Jul-24 14:33N 50°58' E 001°51'8 7.7
2016-Jul-24 13:33N 50°59' E 001°39'1414.3
2016-Jul-24 12:33N 51°07' E 001°20'1 1.5
2016-Jul-24 11:34N 51°07' E 001°22'1817.8
2016-Jul-24 10:33N 50°58' E 001°47'3 2.6
2016-Jul-24 09:33N 50°58' E 001°51'0 0.0
2016-Jul-24 08:33N 50°58' E 001°51'1312.7
2016-Jul-24 07:34N 51°02' E 001°32'9 9.1
2016-Jul-24 06:33N 51°07' E 001°20'0 0.0
2016-Jul-24 05:33N 51°07' E 001°20'0 0.0
2016-Jul-24 04:33N 51°07' E 001°20'1312.9
2016-Jul-24 03:33N 51°02' E 001°38'9 8.7
2016-Jul-24 02:34N 50°58' E 001°51'1 0.7
2016-Jul-24 01:33N 50°58' E 001°52'0 0.0
2016-Jul-24 00:33N 50°58' E 001°52'0 0.0
2016-Jul-23 23:34N 50°58' E 001°52'0 0.0
2016-Jul-23 22:34N 50°58' E 001°52'0 0.3
2016-Jul-23 21:34N 50°58' E 001°52'1413.8
2016-Jul-23 20:33N 51°02' E 001°31'8 8.4
2016-Jul-23 19:33N 51°07' E 001°20'0 0.0
2016-Jul-23 18:33N 51°07' E 001°20'0 0.0
2016-Jul-23 17:33N 51°07' E 001°20'2 1.7
2016-Jul-23 16:33N 51°07' E 001°23'1616.3
2016-Jul-23 15:34N 50°58' E 001°45'4 4.0
2016-Jul-23 14:33N 50°58' E 001°51'1414.1
2016-Jul-23 13:33N 51°03' E 001°30'8 7.6
2016-Jul-23 12:33N 51°07' E 001°20'6 6.0
2016-Jul-23 11:33N 51°06' E 001°29'1615.7
2016-Jul-23 10:33N 50°58' E 001°51'2 2.4
2016-Jul-23 09:33N 50°58' E 001°47'1413.7
2016-Jul-23 08:34N 51°04' E 001°27'6 5.7
2016-Jul-23 07:33N 51°07' E 001°20'0 0.0
2016-Jul-23 06:33N 51°07' E 001°20'0 0.1
2016-Jul-23 04:33N 51°07' E 001°20'1312.7
2016-Jul-23 03:33N 51°02' E 001°39'9 9.1
2016-Jul-23 02:33N 50°58' E 001°52'3 3.0
2016-Jul-23 01:33N 50°58' E 001°47'1717.5
2016-Jul-23 00:33N 51°06' E 001°23'2 1.9
2016-Jul-22 23:33N 51°07' E 001°20'9 9.1
2016-Jul-22 22:33N 51°03' E 001°33'1312.9
2016-Jul-22 21:33N 50°58' E 001°52'0 0.0
2016-Jul-22 20:33N 50°58' E 001°52'5 5.5
2016-Jul-22 19:34N 50°58' E 001°43'1716.8
2016-Jul-22 18:33N 51°07' E 001°20'0 0.2
2016-Jul-22 17:33N 51°07' E 001°20'0 0.1
2016-Jul-22 16:33N 51°07' E 001°20'1615.5
2016-Jul-22 15:33N 50°60' E 001°42'6 6.1
2016-Jul-22 14:33N 50°58' E 001°51'1313.3
2016-Jul-22 13:33N 51°02' E 001°31'9 8.5
2016-Jul-22 12:33N 51°07' E 001°20'2 1.6
2016-Jul-22 11:33N 51°07' E 001°23'1717.3
2016-Jul-22 10:33N 50°58' E 001°46'3 3.2
2016-Jul-22 09:33N 50°58' E 001°51'5 4.7
2016-Jul-22 08:34N 50°58' E 001°44'1717.0
2016-Jul-22 07:33N 51°07' E 001°21'1 0.3
2016-Jul-22 05:33N 51°07' E 001°20'0 0.0
2016-Jul-22 04:33N 51°07' E 001°20'1313.5
2016-Jul-22 03:33N 51°01' E 001°39'9 8.6
2016-Jul-22 02:34N 50°58' E 001°52'0 0.0
2016-Jul-22 01:34N 50°58' E 001°52'1312.6
2016-Jul-22 00:33N 51°03' E 001°33'9 9.2
2016-Jul-21 23:32N 51°07' E 001°20'6 6.4
2016-Jul-21 22:34N 51°06' E 001°30'1414.4
2016-Jul-21 21:33N 50°58' E 001°49'2 1.6
2016-Jul-21 20:34N 50°58' E 001°52'0 0.1
2016-Jul-21 19:33N 50°58' E 001°52'10 9.8
2016-Jul-21 18:33N 50°59' E 001°36'1313.2
2016-Jul-21 17:33N 51°07' E 001°20'0 0.3
2016-Jul-21 16:33N 51°07' E 001°20'1515.3
2016-Jul-21 15:33N 50°60' E 001°42'6 6.1
2016-Jul-21 14:33N 50°58' E 001°51'7 7.0
2016-Jul-21 13:34N 50°59' E 001°40'1515.1
2016-Jul-21 12:33N 51°07' E 001°20'0 0.1
2016-Jul-21 11:32N 51°07' E 001°20'6 5.7
2016-Jul-21 10:33N 51°05' E 001°28'1615.5
2016-Jul-21 09:33N 50°58' E 001°51'0 0.4
2016-Jul-21 08:34N 50°58' E 001°51'9 9.1
2016-Jul-21 07:33N 50°59' E 001°37'1313.3
2016-Jul-21 06:34N 51°07' E 001°20'0 0.0
2016-Jul-21 05:34N 51°07' E 001°20'0 0.1
2016-Jul-21 04:34N 51°07' E 001°20'1414.0
2016-Jul-21 03:33N 51°01' E 001°40'8 7.9
2016-Jul-21 02:33N 50°58' E 001°52'0 0.0
2016-Jul-21 01:34N 50°58' E 001°52'1514.6
2016-Jul-21 00:34N 51°04' E 001°30'7 7.4
2016-Jul-20 23:33N 51°07' E 001°20'6 6.5
2016-Jul-20 22:33N 51°06' E 001°30'1515.5
2016-Jul-20 21:33N 50°58' E 001°51'0 0.2
2016-Jul-20 20:33N 50°58' E 001°52'3 2.7
2016-Jul-20 19:34N 50°58' E 001°47'1716.8
2016-Jul-20 18:34N 51°06' E 001°24'3 2.8
2016-Jul-20 17:33N 51°07' E 001°20'0 0.0
2016-Jul-20 16:33N 51°07' E 001°20'1414.0
2016-Jul-20 15:33N 51°01' E 001°39'8 7.8
2016-Jul-20 14:33N 50°58' E 001°51'8 7.6
2016-Jul-20 13:33N 50°59' E 001°39'1514.4
2016-Jul-20 12:33N 51°07' E 001°20'0 0.0
2016-Jul-20 11:34N 51°07' E 001°20'1312.7
2016-Jul-20 10:34N 51°01' E 001°38'9 9.0
2016-Jul-20 09:34N 50°58' E 001°51'4 4.2
2016-Jul-20 08:33N 50°58' E 001°44'1616.1
2016-Jul-20 07:33N 51°06' E 001°22'2 1.8
2016-Jul-20 06:33N 51°07' E 001°20'0 0.0
2016-Jul-20 05:33N 51°07' E 001°20'0 0.0
2016-Jul-20 04:34N 51°07' E 001°20'1414.3
2016-Jul-20 03:33N 51°00' E 001°40'8 7.8
2016-Jul-20 02:34N 50°58' E 001°52'9 8.7
2016-Jul-20 01:33N 50°59' E 001°38'1414.0
2016-Jul-20 00:33N 51°07' E 001°20'0 0.0
2016-Jul-19 23:33N 51°07' E 001°20'1212.5
2016-Jul-19 22:33N 51°01' E 001°37'10 9.7
2016-Jul-19 21:34N 50°58' E 001°52'0 0.0
2016-Jul-19 20:33N 50°58' E 001°52'0 0.0
2016-Jul-19 19:33N 50°58' E 001°52'1312.6
2016-Jul-19 18:34N 51°01' E 001°32'10 9.8
2016-Jul-19 17:33N 51°07' E 001°20'0 0.0
2016-Jul-19 16:33N 51°07' E 001°20'1111.2
2016-Jul-19 15:33N 51°03' E 001°36'1010.4
2016-Jul-19 14:33N 50°58' E 001°51'6 5.6
2016-Jul-19 13:33N 50°58' E 001°42'1616.3
2016-Jul-19 12:33N 51°07' E 001°20'0 0.1
2016-Jul-19 11:33N 51°07' E 001°20'1615.6
2016-Jul-19 10:33N 50°60' E 001°42'6 6.1
2016-Jul-19 09:33N 50°58' E 001°51'7 6.6
2016-Jul-19 08:33N 50°58' E 001°41'1615.5
2016-Jul-19 07:33N 51°07' E 001°20'0 0.0
2016-Jul-19 04:32N 51°07' E 001°20'1514.8
2016-Jul-19 03:33N 51°00' E 001°40'8 7.5
2016-Jul-19 02:33N 50°58' E 001°52'0 0.0
2016-Jul-19 01:28N 50°58' E 001°52'0 0.0
2016-Jul-19 00:31N 50°58' E 001°52'0 0.0
2016-Jul-18 23:31N 50°58' E 001°52'0 0.0
2016-Jul-18 22:33N 50°58' E 001°52'0 0.0
2016-Jul-18 21:33N 50°58' E 001°52'0 0.0
2016-Jul-18 20:33N 50°58' E 001°52'1212.4
2016-Jul-18 19:33N 51°01' E 001°33'  

Dump ship's entire track history